createdAt,value
2019-01-24T00:00:32.757Z,49.30
2019-01-24T00:03:00.303Z,49.20
2019-01-24T00:05:30.916Z,49.10
2019-01-24T00:07:58.450Z,49.10
2019-01-24T00:10:25.963Z,48.90
2019-01-24T00:12:53.503Z,48.90
2019-01-24T00:15:21.018Z,48.90
2019-01-24T00:17:48.570Z,48.90
2019-01-24T00:20:16.169Z,48.90
2019-01-24T00:22:43.724Z,48.90
2019-01-24T00:25:11.249Z,48.90
2019-01-24T00:27:38.774Z,48.90
2019-01-24T00:30:08.184Z,48.90
2019-01-24T00:32:35.795Z,48.80
2019-01-24T00:35:03.495Z,48.70
2019-01-24T00:37:31.031Z,48.70
2019-01-24T00:39:58.574Z,48.70
2019-01-24T00:42:26.079Z,48.60
2019-01-24T00:44:53.616Z,48.60
2019-01-24T00:47:21.148Z,48.60
2019-01-24T00:49:48.787Z,48.50
2019-01-24T00:52:16.304Z,48.60
2019-01-24T00:54:43.838Z,48.70
2019-01-24T00:57:11.367Z,48.60
2019-01-24T00:59:38.905Z,48.50
2019-01-24T01:02:06.437Z,48.50
2019-01-24T01:04:33.985Z,48.30
2019-01-24T01:07:01.573Z,48.20
2019-01-24T01:09:29.109Z,48.30
2019-01-24T01:11:56.633Z,48.30
2019-01-24T01:14:24.178Z,48.20
2019-01-24T01:16:51.686Z,48.20
2019-01-24T01:19:19.268Z,48.40
2019-01-24T01:21:46.808Z,48.30
2019-01-24T01:24:14.323Z,48.20
2019-01-24T01:26:41.856Z,48.20
2019-01-24T01:29:09.390Z,48.20
2019-01-24T01:31:36.986Z,48.10
2019-01-24T01:34:04.501Z,48.00
2019-01-24T01:36:32.030Z,48.10
2019-01-24T01:38:59.592Z,47.90
2019-01-24T01:41:27.158Z,47.90
2019-01-24T01:43:54.677Z,47.90
2019-01-24T01:46:22.216Z,47.90
2019-01-24T01:48:49.758Z,47.90
2019-01-24T01:51:17.283Z,47.80
2019-01-24T01:53:44.809Z,47.80
2019-01-24T01:56:12.340Z,47.90
2019-01-24T01:58:39.856Z,48.00
2019-01-24T02:01:07.557Z,48.00
2019-01-24T02:03:35.074Z,48.10
2019-01-24T02:06:02.629Z,48.20
2019-01-24T02:08:30.146Z,48.20
2019-01-24T02:10:57.688Z,48.00
2019-01-24T02:13:25.209Z,47.70
2019-01-24T02:15:52.747Z,48.00
2019-01-24T02:18:20.337Z,48.00
2019-01-24T02:20:47.883Z,47.90
2019-01-24T02:23:15.475Z,47.90
2019-01-24T02:25:43.004Z,47.90
2019-01-24T02:28:10.611Z,47.80
2019-01-24T02:30:38.136Z,47.90
2019-01-24T02:33:06.094Z,47.90
2019-01-24T02:35:33.623Z,47.90
2019-01-24T02:38:01.143Z,47.80
2019-01-24T02:40:28.669Z,47.80
2019-01-24T02:42:56.215Z,47.70
2019-01-24T02:45:24.208Z,47.60
2019-01-24T02:47:51.822Z,47.60
2019-01-24T02:50:22.755Z,47.60
2019-01-24T02:52:50.288Z,47.70
2019-01-24T02:55:17.811Z,47.70
2019-01-24T02:57:45.412Z,47.60
2019-01-24T03:00:14.124Z,47.60
2019-01-24T03:02:41.662Z,47.60
2019-01-24T03:05:10.831Z,47.70
2019-01-24T03:07:38.369Z,47.60
2019-01-24T03:10:07.642Z,47.60
2019-01-24T03:12:35.169Z,47.60
2019-01-24T03:15:02.769Z,47.60
2019-01-24T03:17:30.307Z,47.50
2019-01-24T03:19:57.850Z,47.60
2019-01-24T03:22:25.366Z,47.50
2019-01-24T03:24:52.952Z,47.50
2019-01-24T03:27:20.542Z,47.40
2019-01-24T03:29:48.351Z,47.40
2019-01-24T03:32:15.950Z,47.40
2019-01-24T03:34:43.481Z,47.50
2019-01-24T03:37:11.028Z,47.50
2019-01-24T03:39:38.582Z,47.40
2019-01-24T03:42:06.143Z,47.40
2019-01-24T03:44:33.716Z,47.30
2019-01-24T03:47:01.258Z,47.30
2019-01-24T03:49:28.866Z,47.30
2019-01-24T03:51:56.387Z,47.20
2019-01-24T03:54:23.913Z,47.10
2019-01-24T03:56:51.450Z,47.10
2019-01-24T03:59:18.988Z,47.20
2019-01-24T04:01:46.597Z,47.10
2019-01-24T04:04:14.128Z,47.10
2019-01-24T04:06:41.654Z,47.10
2019-01-24T04:09:09.199Z,48.00
2019-01-24T04:11:36.715Z,47.40
2019-01-24T04:14:04.417Z,47.40
2019-01-24T04:16:31.947Z,47.40
2019-01-24T04:18:59.547Z,47.30
2019-01-24T04:21:27.082Z,47.20
2019-01-24T04:23:54.623Z,47.30
2019-01-24T04:26:22.224Z,47.10
2019-01-24T04:28:49.790Z,47.20
2019-01-24T04:31:17.403Z,47.10
2019-01-24T04:33:44.989Z,47.10
2019-01-24T04:36:12.526Z,46.90
2019-01-24T04:38:40.074Z,46.90
2019-01-24T04:41:07.682Z,46.90
2019-01-24T04:43:35.222Z,47.00
2019-01-24T04:46:02.819Z,47.00
2019-01-24T04:48:30.415Z,46.90
2019-01-24T04:50:58.003Z,46.90
2019-01-24T04:53:25.528Z,46.90
2019-01-24T04:55:53.060Z,46.80
2019-01-24T04:58:20.595Z,46.70
2019-01-24T05:00:48.117Z,46.80
2019-01-24T05:03:16.246Z,46.70
2019-01-24T05:05:43.887Z,46.70
2019-01-24T05:08:11.495Z,46.70
2019-01-24T05:10:39.387Z,46.70
2019-01-24T05:13:06.916Z,46.70
2019-01-24T05:15:34.493Z,46.70
2019-01-24T05:18:02.104Z,46.70
2019-01-24T05:20:29.750Z,46.70
2019-01-24T05:22:57.291Z,46.70
2019-01-24T05:25:24.885Z,46.70
2019-01-24T05:27:52.407Z,46.70
2019-01-24T05:30:21.335Z,46.70
2019-01-24T05:32:48.882Z,46.70
2019-01-24T05:35:16.420Z,46.70
2019-01-24T05:37:44.035Z,46.60
2019-01-24T05:40:11.629Z,46.60
2019-01-24T05:42:39.254Z,46.70
2019-01-24T05:45:08.310Z,47.30
2019-01-24T05:47:35.812Z,46.70
2019-01-24T05:50:04.633Z,47.30
2019-01-24T05:52:32.161Z,46.60
2019-01-24T05:54:59.707Z,46.60
2019-01-24T05:57:27.243Z,46.50
2019-01-24T05:59:54.838Z,46.70
2019-01-24T06:02:22.365Z,46.60
2019-01-24T06:04:49.971Z,46.70
2019-01-24T06:07:17.572Z,46.70
2019-01-24T06:09:45.102Z,46.80
2019-01-24T06:12:12.727Z,46.70
2019-01-24T06:14:40.325Z,46.70
2019-01-24T06:17:07.859Z,46.70
2019-01-24T06:19:35.392Z,46.80
2019-01-24T06:22:02.925Z,46.70
2019-01-24T06:24:30.467Z,46.90
2019-01-24T06:26:57.979Z,46.70
2019-01-24T06:29:25.513Z,46.60
2019-01-24T06:31:53.044Z,46.70
2019-01-24T06:34:20.679Z,46.70
2019-01-24T06:36:48.205Z,46.70
2019-01-24T06:39:15.724Z,46.50
2019-01-24T06:41:43.261Z,46.60
2019-01-24T06:44:10.788Z,46.40
2019-01-24T06:46:38.375Z,46.30
2019-01-24T06:49:05.973Z,46.40
2019-01-24T06:51:33.570Z,46.60
2019-01-24T06:54:01.129Z,46.50
2019-01-24T06:56:28.689Z,46.40
2019-01-24T06:58:56.534Z,46.50
2019-01-24T07:01:24.087Z,46.00
2019-01-24T07:03:51.693Z,46.10
2019-01-24T07:06:19.288Z,46.00
2019-01-24T07:08:46.923Z,46.00
2019-01-24T07:11:14.524Z,45.70
2019-01-24T07:13:42.047Z,45.70
2019-01-24T07:16:09.594Z,45.60
2019-01-24T07:18:37.158Z,45.60
2019-01-24T07:21:04.683Z,45.60
2019-01-24T07:23:32.190Z,45.50
2019-01-24T07:26:00.068Z,45.30
2019-01-24T07:28:27.629Z,45.40
2019-01-24T07:30:55.171Z,45.30
2019-01-24T07:33:22.703Z,45.20
2019-01-24T07:35:50.240Z,45.10
2019-01-24T07:38:17.777Z,45.00
2019-01-24T07:40:45.308Z,45.00
2019-01-24T07:43:12.905Z,45.00
2019-01-24T07:45:40.859Z,45.00
2019-01-24T07:48:08.403Z,45.10
2019-01-24T07:50:35.930Z,45.00
2019-01-24T07:53:03.478Z,45.00
2019-01-24T07:55:31.004Z,45.10
2019-01-24T07:57:58.540Z,45.00
2019-01-24T08:00:29.535Z,45.00
2019-01-24T08:02:57.076Z,44.90
2019-01-24T08:05:25.586Z,44.70
2019-01-24T08:07:53.129Z,45.00
2019-01-24T08:10:21.367Z,44.90
2019-01-24T08:12:51.915Z,44.80
2019-01-24T08:15:20.234Z,44.70
2019-01-24T08:17:48.087Z,44.80
2019-01-24T08:20:17.609Z,44.80
2019-01-24T08:22:45.216Z,44.80
2019-01-24T08:25:12.990Z,44.90
2019-01-24T08:27:40.889Z,44.80
2019-01-24T08:30:12.852Z,44.80
2019-01-24T08:32:40.398Z,44.80
2019-01-24T08:35:08.512Z,44.60
2019-01-24T08:37:36.129Z,44.40
2019-01-24T08:40:05.361Z,44.40
2019-01-24T08:42:32.894Z,44.50
2019-01-24T08:45:00.475Z,44.30
2019-01-24T08:47:28.028Z,44.30
2019-01-24T08:49:55.587Z,44.40
2019-01-24T08:52:23.146Z,44.40
2019-01-24T08:54:50.677Z,44.30
2019-01-24T08:57:18.210Z,44.40
2019-01-24T08:59:45.822Z,44.30
2019-01-24T09:02:13.389Z,44.30
2019-01-24T09:04:40.985Z,44.30
2019-01-24T09:07:08.532Z,44.40
2019-01-24T09:09:36.095Z,44.40
2019-01-24T09:12:03.744Z,44.30
2019-01-24T09:14:31.341Z,44.30
2019-01-24T09:16:58.848Z,44.30
2019-01-24T09:19:26.681Z,44.30
2019-01-24T09:21:54.226Z,44.30
2019-01-24T09:24:21.782Z,44.30
2019-01-24T09:26:49.390Z,44.30
2019-01-24T09:29:17.084Z,44.80
2019-01-24T09:31:44.733Z,44.40
2019-01-24T09:34:12.369Z,44.30
2019-01-24T09:36:39.900Z,44.30
2019-01-24T09:39:07.441Z,44.40
2019-01-24T09:41:34.997Z,44.20
2019-01-24T09:44:02.530Z,44.00
2019-01-24T09:46:30.062Z,44.00
2019-01-24T09:48:57.598Z,44.00
2019-01-24T09:51:25.130Z,43.90
2019-01-24T09:53:52.735Z,43.90
2019-01-24T09:56:20.276Z,44.00
2019-01-24T09:58:47.806Z,43.90
2019-01-24T10:01:15.382Z,44.00
2019-01-24T10:03:42.977Z,44.00
2019-01-24T10:06:10.585Z,43.70
2019-01-24T10:08:38.220Z,43.70
2019-01-24T10:11:05.826Z,43.60
2019-01-24T10:13:33.359Z,43.60
2019-01-24T10:16:00.955Z,43.60
2019-01-24T10:18:28.478Z,43.80
2019-01-24T10:20:56.064Z,43.70
2019-01-24T10:23:23.576Z,43.60
2019-01-24T10:25:51.124Z,43.60
2019-01-24T10:28:18.724Z,43.70
2019-01-24T10:30:46.328Z,43.70
2019-01-24T10:33:13.856Z,43.70
2019-01-24T10:35:41.388Z,43.80
2019-01-24T10:38:08.992Z,43.80
2019-01-24T10:40:36.516Z,43.70
2019-01-24T10:43:04.028Z,43.70
2019-01-24T10:45:31.587Z,43.60
2019-01-24T10:47:59.120Z,43.70
2019-01-24T10:50:27.578Z,43.60
2019-01-24T10:52:55.108Z,43.60
2019-01-24T10:55:23.514Z,43.60
2019-01-24T10:57:51.583Z,44.20
2019-01-24T11:00:26.608Z,43.50
2019-01-24T11:02:54.600Z,43.50
2019-01-24T11:05:22.112Z,43.60
2019-01-24T11:07:49.655Z,43.50
2019-01-24T11:10:18.791Z,43.40
2019-01-24T11:12:46.508Z,43.50
2019-01-24T11:15:15.671Z,43.40
2019-01-24T11:17:43.203Z,43.40
2019-01-24T11:20:11.985Z,43.40
2019-01-24T11:22:39.510Z,43.30
2019-01-24T11:25:08.663Z,43.30
2019-01-24T11:27:36.200Z,43.30
2019-01-24T11:30:05.389Z,43.40
2019-01-24T11:32:32.991Z,43.40
2019-01-24T11:35:00.530Z,43.40
2019-01-24T11:37:28.054Z,43.30
2019-01-24T11:39:55.581Z,43.40
2019-01-24T11:42:23.126Z,43.40
2019-01-24T11:44:50.647Z,43.30
2019-01-24T11:47:18.225Z,43.30
2019-01-24T11:49:45.830Z,43.30
2019-01-24T11:52:13.364Z,43.20
2019-01-24T11:54:40.892Z,43.30
2019-01-24T11:57:08.423Z,43.30
2019-01-24T11:59:35.960Z,43.20
2019-01-24T12:02:03.553Z,43.90
2019-01-24T12:04:31.078Z,43.30
2019-01-24T12:07:04.143Z,43.30
2019-01-24T12:09:27.857Z,43.30
2019-01-24T12:11:55.379Z,43.10
2019-01-24T12:14:25.720Z,43.30
2019-01-24T12:16:53.326Z,43.10
2019-01-24T12:19:20.864Z,43.00
2019-01-24T12:21:48.424Z,43.00
2019-01-24T12:24:16.334Z,43.10
2019-01-24T12:26:43.898Z,43.10
2019-01-24T12:29:11.758Z,43.20
2019-01-24T12:31:39.270Z,43.20
2019-01-24T12:34:06.843Z,43.10
2019-01-24T12:36:34.361Z,43.30
2019-01-24T12:39:01.974Z,43.30
2019-01-24T12:41:29.615Z,43.30
2019-01-24T12:43:57.269Z,43.30
2019-01-24T12:46:24.796Z,43.40
2019-01-24T12:48:52.344Z,43.40
2019-01-24T12:51:19.875Z,43.30
2019-01-24T12:53:47.751Z,43.30
2019-01-24T12:56:15.286Z,43.40
2019-01-24T12:58:42.847Z,43.40
2019-01-24T13:01:10.381Z,43.20
2019-01-24T13:03:37.922Z,43.20
2019-01-24T13:06:05.677Z,43.20
2019-01-24T13:08:33.252Z,43.20
2019-01-24T13:11:00.773Z,43.20
2019-01-24T13:13:28.300Z,43.30
2019-01-24T13:15:55.813Z,43.20
2019-01-24T13:18:23.338Z,43.30
2019-01-24T13:20:50.949Z,43.20
2019-01-24T13:23:18.477Z,43.20
2019-01-24T13:25:46.026Z,43.30
2019-01-24T13:28:13.620Z,43.30
2019-01-24T13:30:41.160Z,43.10
2019-01-24T13:33:08.699Z,43.40
2019-01-24T13:35:36.265Z,43.10
2019-01-24T13:38:04.166Z,43.10
2019-01-24T13:40:31.703Z,43.00
2019-01-24T13:42:59.468Z,43.40
2019-01-24T13:45:27.973Z,43.00
2019-01-24T13:47:55.579Z,43.10
2019-01-24T13:50:23.271Z,43.20
2019-01-24T13:52:50.894Z,43.10
2019-01-24T13:55:18.597Z,43.00
2019-01-24T13:57:46.153Z,42.90
2019-01-24T14:00:17.960Z,43.10
2019-01-24T14:02:46.179Z,43.00
2019-01-24T14:39:19.793Z,43.00
2019-01-24T14:41:47.372Z,43.00
2019-01-24T14:44:14.976Z,43.10
2019-01-24T14:46:42.509Z,43.10
2019-01-24T14:49:10.050Z,43.00
2019-01-24T14:51:37.652Z,43.00
2019-01-24T14:54:05.175Z,43.00
2019-01-24T14:56:32.802Z,43.70
2019-01-24T14:59:00.420Z,43.00
2019-01-24T15:01:27.953Z,43.10
2019-01-24T15:03:55.803Z,43.00
2019-01-24T15:06:23.328Z,42.90
2019-01-24T15:08:50.887Z,42.90
2019-01-24T15:11:18.421Z,42.70
2019-01-24T15:13:45.953Z,42.80
2019-01-24T15:16:13.595Z,42.80
2019-01-24T15:18:41.128Z,43.00
2019-01-24T15:21:08.662Z,43.00
2019-01-24T15:23:36.204Z,43.10
2019-01-24T15:26:03.805Z,43.20
2019-01-24T15:28:31.346Z,43.40
2019-01-24T15:30:58.892Z,43.30
2019-01-24T15:33:26.422Z,43.30
2019-01-24T15:35:53.942Z,43.20
2019-01-24T15:38:21.858Z,43.20
2019-01-24T15:40:49.386Z,43.10
2019-01-24T15:43:16.996Z,43.00
2019-01-24T15:45:44.518Z,43.00
2019-01-24T15:48:12.047Z,43.10
2019-01-24T15:50:39.619Z,43.10
2019-01-24T15:53:07.146Z,43.10
2019-01-24T15:55:34.827Z,43.20
2019-01-24T15:58:02.421Z,43.10
2019-01-24T16:00:31.122Z,43.10
2019-01-24T16:02:58.639Z,43.10
2019-01-24T16:05:26.252Z,43.00
2019-01-24T16:07:53.782Z,43.00
2019-01-24T16:10:21.991Z,42.90
2019-01-24T16:12:49.515Z,43.00
2019-01-24T16:15:17.833Z,43.00
2019-01-24T16:17:45.455Z,42.80
2019-01-24T16:20:14.178Z,42.90
2019-01-24T16:22:41.774Z,43.40
2019-01-24T16:25:10.669Z,42.70
2019-01-24T16:27:38.197Z,42.60
2019-01-24T16:30:07.384Z,42.60
2019-01-24T16:32:34.896Z,42.50
2019-01-24T16:35:02.422Z,42.70
2019-01-24T16:37:30.195Z,42.70
2019-01-24T16:39:57.729Z,42.70
2019-01-24T16:42:25.257Z,42.80
2019-01-24T16:44:53.159Z,42.80
2019-01-24T16:47:20.696Z,43.00
2019-01-24T16:49:48.211Z,43.00
2019-01-24T16:52:15.759Z,43.00
2019-01-24T16:54:43.358Z,43.20
2019-01-24T16:57:11.254Z,43.30
2019-01-24T16:59:38.966Z,43.40
2019-01-24T17:02:06.602Z,43.40
2019-01-24T17:04:34.135Z,44.00
2019-01-24T17:07:01.676Z,43.40
2019-01-24T17:09:29.206Z,43.30
2019-01-24T17:11:56.751Z,43.10
2019-01-24T17:14:24.345Z,43.70
2019-01-24T17:16:52.247Z,43.10
2019-01-24T17:19:19.847Z,43.10
2019-01-24T17:21:47.555Z,43.10
2019-01-24T17:24:15.079Z,43.10
2019-01-24T17:26:42.619Z,43.20
2019-01-24T17:29:10.550Z,43.10
2019-01-24T17:31:38.516Z,43.10
2019-01-24T17:34:06.067Z,43.00
2019-01-24T17:36:33.611Z,43.00
2019-01-24T17:39:01.153Z,42.80
2019-01-24T17:41:28.681Z,43.50
2019-01-24T17:43:56.216Z,43.00
2019-01-24T17:46:23.745Z,43.00
2019-01-24T17:48:51.258Z,43.10
2019-01-24T17:51:19.032Z,43.10
2019-01-24T17:53:46.575Z,43.10
2019-01-24T17:56:14.174Z,42.90
2019-01-24T17:58:41.731Z,42.90
2019-01-24T18:01:09.370Z,43.10
2019-01-24T18:03:36.934Z,43.00
2019-01-24T18:06:04.537Z,42.90
2019-01-24T18:08:32.062Z,42.90
2019-01-24T18:10:59.594Z,42.90
2019-01-24T18:13:27.109Z,43.40
2019-01-24T18:15:54.653Z,42.90
2019-01-24T18:18:22.223Z,42.80
2019-01-24T18:20:49.855Z,42.90
2019-01-24T18:23:17.415Z,42.90
2019-01-24T18:25:44.947Z,42.80
2019-01-24T18:28:12.557Z,42.20
2019-01-24T18:30:40.277Z,42.80
2019-01-24T18:33:07.889Z,42.90
2019-01-24T18:35:35.398Z,42.80
2019-01-24T18:38:02.948Z,42.70
2019-01-24T18:40:30.922Z,42.70
2019-01-24T18:42:59.090Z,42.70
2019-01-24T18:45:27.874Z,42.90
2019-01-24T18:47:56.388Z,42.80
2019-01-24T18:50:23.915Z,42.70
2019-01-24T18:52:51.545Z,42.80
2019-01-24T18:55:19.070Z,42.90
2019-01-24T18:57:47.872Z,42.80
2019-01-24T19:00:27.850Z,43.00
2019-01-24T19:02:55.473Z,43.20
2019-01-24T19:05:23.024Z,43.10
2019-01-24T19:07:50.562Z,43.20
2019-01-24T19:10:18.107Z,43.10
2019-01-24T19:12:45.711Z,42.80
2019-01-24T19:15:17.739Z,42.90
2019-01-24T19:17:45.738Z,43.10
2019-01-24T19:20:16.499Z,43.40
2019-01-24T19:22:44.040Z,43.50
2019-01-24T19:25:12.539Z,43.30
2019-01-24T19:27:40.059Z,43.50
2019-01-24T19:30:09.370Z,43.60
2019-01-24T19:32:36.827Z,43.80
2019-01-24T19:35:05.783Z,43.80
2019-01-24T19:37:33.259Z,44.10
2019-01-24T19:40:00.736Z,43.90
2019-01-24T19:42:28.211Z,43.80
2019-01-24T19:44:55.739Z,43.90
2019-01-24T19:47:23.520Z,43.90
2019-01-24T19:49:50.981Z,44.20
2019-01-24T19:52:18.467Z,44.00
2019-01-24T19:54:45.968Z,44.00
2019-01-24T19:57:13.758Z,44.00
2019-01-24T19:59:41.526Z,44.10
2019-01-24T20:02:09.005Z,44.00
2019-01-24T20:04:36.560Z,44.00
2019-01-24T20:07:04.048Z,43.90
2019-01-24T20:09:31.512Z,43.80
2019-01-24T20:11:59.077Z,43.70
2019-01-24T20:14:26.595Z,43.80
2019-01-24T20:16:54.080Z,44.10
2019-01-24T20:19:21.544Z,44.40
2019-01-24T20:21:49.035Z,44.50
2019-01-24T20:24:16.516Z,44.40
2019-01-24T20:26:43.994Z,44.50
2019-01-24T20:29:11.463Z,44.50
2019-01-24T20:31:38.951Z,44.90
2019-01-24T20:34:06.442Z,44.60
2019-01-24T20:36:33.941Z,44.70
2019-01-24T20:39:07.402Z,44.80
2019-01-24T20:41:30.690Z,44.60
2019-01-24T20:43:58.247Z,44.80
2019-01-24T20:46:25.731Z,45.00
2019-01-24T20:48:53.199Z,45.10
2019-01-24T20:51:20.682Z,45.40
2019-01-24T20:53:48.154Z,45.30
2019-01-24T20:56:15.660Z,45.30
2019-01-24T20:58:43.188Z,45.20
2019-01-24T21:01:10.656Z,45.40
2019-01-24T21:03:38.227Z,45.40
2019-01-24T21:06:05.703Z,45.50
2019-01-24T21:08:33.177Z,45.50
2019-01-24T21:11:00.648Z,45.50
2019-01-24T21:13:28.154Z,45.40
2019-01-24T21:15:55.618Z,45.40
2019-01-24T21:18:23.090Z,45.30
2019-01-24T21:20:50.563Z,45.30
2019-01-24T21:23:18.039Z,45.20
2019-01-24T21:25:45.511Z,45.50
2019-01-24T21:28:13.017Z,45.60
2019-01-24T21:30:40.483Z,45.60
2019-01-24T21:33:07.970Z,45.70
2019-01-24T21:35:35.438Z,45.50
2019-01-24T21:38:02.916Z,45.50
2019-01-24T21:40:30.382Z,45.50
2019-01-24T21:42:57.861Z,45.40
2019-01-24T21:45:26.404Z,45.40
2019-01-24T21:47:53.880Z,45.30
2019-01-24T21:50:22.125Z,45.40
2019-01-24T21:52:49.612Z,45.40
2019-01-24T21:55:17.451Z,45.50
2019-01-24T21:57:44.939Z,45.50
2019-01-24T22:00:14.042Z,45.50
2019-01-24T22:02:41.531Z,45.50
2019-01-24T22:05:10.175Z,45.50
2019-01-24T22:07:37.641Z,45.50
2019-01-24T22:10:06.756Z,45.40
2019-01-24T22:12:34.231Z,45.40
2019-01-24T22:15:01.721Z,45.40
2019-01-24T22:17:29.210Z,45.40
2019-01-24T22:19:56.688Z,45.40
2019-01-24T22:22:24.179Z,45.20
2019-01-24T22:24:51.650Z,45.20
2019-01-24T22:27:19.151Z,45.30
2019-01-24T22:29:46.630Z,45.40
2019-01-24T22:32:14.105Z,45.40
2019-01-24T22:34:41.643Z,45.40
2019-01-24T22:37:09.179Z,45.30
2019-01-24T22:39:36.808Z,45.20
2019-01-24T22:42:04.299Z,45.20
2019-01-24T22:44:31.778Z,45.10
2019-01-24T22:46:59.245Z,45.10
2019-01-24T22:49:26.729Z,45.10
2019-01-24T22:51:54.203Z,45.10
2019-01-24T22:54:21.711Z,45.20
2019-01-24T22:56:49.177Z,45.30
2019-01-24T22:59:16.669Z,45.20
2019-01-24T23:01:44.202Z,45.20
2019-01-24T23:04:11.705Z,45.30
2019-01-24T23:06:39.166Z,45.40
2019-01-24T23:09:08.007Z,45.50
2019-01-24T23:11:35.480Z,45.50
2019-01-24T23:14:02.956Z,45.50
2019-01-24T23:16:30.444Z,45.50
2019-01-24T23:18:57.923Z,45.50
2019-01-24T23:21:25.405Z,45.40
2019-01-24T23:23:52.867Z,45.40
2019-01-24T23:26:20.342Z,45.40
2019-01-24T23:28:47.810Z,45.40
2019-01-24T23:31:15.281Z,45.40
2019-01-24T23:33:42.763Z,45.40
2019-01-24T23:36:10.241Z,45.40
2019-01-24T23:38:37.702Z,45.40
2019-01-24T23:41:05.288Z,45.40
2019-01-24T23:43:32.832Z,45.30
2019-01-24T23:46:00.407Z,45.30
2019-01-24T23:48:27.874Z,45.20
2019-01-24T23:50:55.354Z,45.20
2019-01-24T23:53:22.832Z,45.20
2019-01-24T23:55:50.315Z,45.20
2019-01-24T23:58:17.792Z,45.20
